createdAt,value
2022-11-03T00:01:11.612Z,9.90
2022-11-03T00:03:39.570Z,9.90
2022-11-03T00:06:09.087Z,10.00
2022-11-03T00:08:43.507Z,10.00
2022-11-03T00:11:12.335Z,10.00
2022-11-03T00:13:41.985Z,10.00
2022-11-03T00:16:10.222Z,10.00
2022-11-03T00:18:38.357Z,10.00
2022-11-03T00:21:07.270Z,10.00
2022-11-03T00:23:37.242Z,10.00
2022-11-03T00:26:09.759Z,10.00
2022-11-03T00:28:38.197Z,10.00
2022-11-03T00:31:10.046Z,10.00
2022-11-03T00:33:38.582Z,10.00
2022-11-03T00:36:07.098Z,10.00
2022-11-03T00:38:37.626Z,10.00
2022-11-03T00:41:06.208Z,10.00
2022-11-03T00:43:35.300Z,10.00
2022-11-03T00:46:05.003Z,10.10
2022-11-03T00:48:34.021Z,10.90
2022-11-03T00:51:05.868Z,10.00
2022-11-03T00:53:34.248Z,10.00
2022-11-03T00:56:03.669Z,10.00
2022-11-03T00:58:31.571Z,10.00
2022-11-03T01:01:00.328Z,10.00
2022-11-03T01:03:28.477Z,10.00
2022-11-03T01:06:14.172Z,10.00
2022-11-03T01:08:42.136Z,10.00
2022-11-03T01:11:29.928Z,10.00
2022-11-03T01:13:58.121Z,10.00
2022-11-03T01:16:26.311Z,10.00
2022-11-03T01:18:54.295Z,10.10
2022-11-03T01:21:22.351Z,10.10
2022-11-03T01:23:50.539Z,10.10
2022-11-03T01:26:19.779Z,10.10
2022-11-03T01:28:48.440Z,10.10
2022-11-03T01:31:17.581Z,10.10
2022-11-03T01:33:46.450Z,10.20
2022-11-03T01:36:15.444Z,10.20
2022-11-03T01:38:44.121Z,10.20
2022-11-03T01:41:14.817Z,10.20
2022-11-03T01:43:44.146Z,10.20
2022-11-03T01:46:16.201Z,10.20
2022-11-03T01:48:46.718Z,10.20
2022-11-03T01:51:15.976Z,10.20
2022-11-03T01:53:45.745Z,10.20
2022-11-03T01:56:14.509Z,10.20
2022-11-03T01:58:44.884Z,10.20
2022-11-03T02:01:12.871Z,10.20
2022-11-03T02:03:43.195Z,10.10
2022-11-03T02:06:11.438Z,10.10
2022-11-03T02:08:41.157Z,10.10
2022-11-03T02:11:23.145Z,10.00
2022-11-03T02:13:52.455Z,10.10
2022-11-03T02:16:21.414Z,10.00
2022-11-03T02:18:50.602Z,10.00
2022-11-03T02:21:25.057Z,9.90
2022-11-03T02:23:58.593Z,9.90
2022-11-03T02:26:28.397Z,9.90
2022-11-03T02:28:56.355Z,9.80
2022-11-03T02:31:29.890Z,9.80
2022-11-03T02:34:00.893Z,10.90
2022-11-03T02:36:30.925Z,9.80
2022-11-03T02:39:00.154Z,9.70
2022-11-03T02:41:30.685Z,9.70
2022-11-03T02:43:59.086Z,9.70
2022-11-03T02:46:27.694Z,9.70
2022-11-03T02:48:57.182Z,8.90
2022-11-03T02:51:25.331Z,9.70
2022-11-03T02:54:01.568Z,9.70
2022-11-03T02:56:32.146Z,9.70
2022-11-03T02:59:02.414Z,9.60
2022-11-03T03:01:34.941Z,9.60
2022-11-03T03:04:05.452Z,9.60
2022-11-03T03:06:36.243Z,9.60
2022-11-03T03:09:05.894Z,9.70
2022-11-03T03:11:39.139Z,9.60
2022-11-03T03:14:09.323Z,11.30
2022-11-03T03:16:42.673Z,9.70
2022-11-03T03:19:16.547Z,9.70
2022-11-03T03:21:46.288Z,9.70
2022-11-03T03:24:16.790Z,10.30
2022-11-03T03:26:49.668Z,9.70
2022-11-03T03:29:20.265Z,9.70
2022-11-03T03:31:51.123Z,9.70
2022-11-03T03:34:36.551Z,9.70
2022-11-03T03:37:05.726Z,9.70
2022-11-03T03:39:35.338Z,9.70
2022-11-03T03:42:05.973Z,9.70
2022-11-03T03:44:35.220Z,9.70
2022-11-03T03:47:05.004Z,9.70
2022-11-03T03:49:33.021Z,9.70
2022-11-03T03:52:01.053Z,9.70
2022-11-03T03:54:28.983Z,9.70
2022-11-03T03:57:00.582Z,9.70
2022-11-03T03:59:30.646Z,9.70
2022-11-03T04:01:59.329Z,9.70
2022-11-03T04:04:27.623Z,9.60
2022-11-03T04:07:19.933Z,9.60
2022-11-03T04:09:47.836Z,9.70
2022-11-03T04:12:33.015Z,9.70
2022-11-03T04:15:20.058Z,9.70
2022-11-03T04:18:06.427Z,9.70
2022-11-03T04:20:48.725Z,9.60
2022-11-03T04:23:16.793Z,9.60
2022-11-03T04:25:47.786Z,9.60
2022-11-03T04:28:16.236Z,9.60
2022-11-03T04:30:45.534Z,9.60
2022-11-03T04:33:14.987Z,9.60
2022-11-03T04:35:44.299Z,9.60
2022-11-03T04:38:21.173Z,9.60
2022-11-03T04:40:53.644Z,9.60
2022-11-03T04:43:50.716Z,9.60
2022-11-03T04:46:24.419Z,9.60
2022-11-03T04:48:53.683Z,9.60
2022-11-03T04:51:23.825Z,9.60
2022-11-03T04:53:53.697Z,9.60
2022-11-03T04:56:23.059Z,9.60
2022-11-03T04:58:50.952Z,9.60
2022-11-03T05:01:24.294Z,9.60
2022-11-03T05:03:53.738Z,9.60
2022-11-03T05:06:22.727Z,9.60
2022-11-03T05:08:51.977Z,9.60
2022-11-03T05:11:31.620Z,9.60
2022-11-03T05:14:00.198Z,9.60
2022-11-03T05:16:29.603Z,9.60
2022-11-03T05:18:57.571Z,9.70
2022-11-03T05:21:27.406Z,9.60
2022-11-03T05:23:59.011Z,9.70
2022-11-03T05:26:27.771Z,9.60
2022-11-03T05:28:59.714Z,9.30
2022-11-03T05:31:29.936Z,9.60
2022-11-03T05:33:59.010Z,9.70
2022-11-03T05:36:27.638Z,9.70
2022-11-03T05:38:57.326Z,9.70
2022-11-03T05:41:27.152Z,9.70
2022-11-03T05:43:56.982Z,9.70
2022-11-03T05:46:25.339Z,9.70
2022-11-03T05:48:54.643Z,9.70
2022-11-03T05:51:23.748Z,9.70
2022-11-03T05:53:54.355Z,9.70
2022-11-03T05:56:23.349Z,9.70
2022-11-03T05:58:52.250Z,9.70
2022-11-03T06:01:21.945Z,9.70
2022-11-03T06:03:50.098Z,9.70
2022-11-03T06:06:21.930Z,9.70
2022-11-03T06:08:50.091Z,9.70
2022-11-03T06:11:22.287Z,9.70
2022-11-03T06:13:50.219Z,9.70
2022-11-03T06:16:27.764Z,9.60
2022-11-03T06:18:55.835Z,9.60
2022-11-03T06:21:26.727Z,9.60
2022-11-03T06:23:55.401Z,9.70
2022-11-03T06:26:25.336Z,9.60
2022-11-03T06:29:15.367Z,9.60
2022-11-03T06:31:44.186Z,9.60
2022-11-03T06:34:22.364Z,9.70
2022-11-03T06:36:51.669Z,9.60
2022-11-03T06:39:21.813Z,9.60
2022-11-03T06:41:49.968Z,9.70
2022-11-03T06:44:21.067Z,9.70
2022-11-03T06:46:48.979Z,9.60
2022-11-03T06:49:26.385Z,9.60
2022-11-03T06:51:55.702Z,9.60
2022-11-03T06:54:23.775Z,9.60
2022-11-03T06:56:51.739Z,9.60
2022-11-03T06:59:20.115Z,9.70
2022-11-03T07:01:50.175Z,9.60
2022-11-03T07:04:20.265Z,9.70
2022-11-03T07:06:52.951Z,9.70
2022-11-03T07:09:25.978Z,9.70
2022-11-03T07:11:54.995Z,9.70
2022-11-03T07:14:23.709Z,9.70
2022-11-03T07:16:53.089Z,9.70
2022-11-03T07:19:23.508Z,9.80
2022-11-03T07:21:52.200Z,9.80
2022-11-03T07:24:21.714Z,9.90
2022-11-03T07:26:54.937Z,9.90
2022-11-03T07:29:23.987Z,9.90
2022-11-03T07:31:53.220Z,9.90
2022-11-03T07:34:22.702Z,10.00
2022-11-03T07:36:55.429Z,10.00
2022-11-03T07:39:24.114Z,10.00
2022-11-03T07:41:53.500Z,10.10
2022-11-03T07:44:22.070Z,10.10
2022-11-03T07:46:50.575Z,10.20
2022-11-03T07:49:22.494Z,10.20
2022-11-03T07:51:51.131Z,10.20
2022-11-03T07:54:20.693Z,10.30
2022-11-03T07:56:51.532Z,10.30
2022-11-03T08:01:56.934Z,10.20
2022-11-03T08:04:26.474Z,10.40
2022-11-03T08:06:54.403Z,10.50
2022-11-03T08:09:22.550Z,10.50
2022-11-03T08:11:50.726Z,10.60
2022-11-03T08:14:18.841Z,10.60
2022-11-03T08:16:48.145Z,10.60
2022-11-03T08:19:16.139Z,10.70
2022-11-03T08:21:44.063Z,10.70
2022-11-03T08:24:14.071Z,10.80
2022-11-03T08:26:42.044Z,10.80
2022-11-03T08:29:17.559Z,10.90
2022-11-03T08:31:46.159Z,10.90
2022-11-03T08:34:15.683Z,10.90
2022-11-03T08:36:46.267Z,11.00
2022-11-03T08:39:26.225Z,11.10
2022-11-03T08:41:54.211Z,11.10
2022-11-03T08:44:23.347Z,11.20
2022-11-03T08:46:51.376Z,11.20
2022-11-03T08:49:21.293Z,11.30
2022-11-03T08:51:49.297Z,11.30
2022-11-03T08:54:17.201Z,11.40
2022-11-03T08:56:46.722Z,11.40
2022-11-03T08:59:14.776Z,11.50
2022-11-03T09:01:43.018Z,11.50
2022-11-03T09:04:11.303Z,11.50
2022-11-03T09:06:41.179Z,12.90
2022-11-03T09:11:57.073Z,11.60
2022-11-03T09:14:25.015Z,11.60
2022-11-03T09:16:52.961Z,11.60
2022-11-03T09:19:21.004Z,11.60
2022-11-03T09:21:52.188Z,11.70
2022-11-03T09:24:20.110Z,11.70
2022-11-03T09:26:48.043Z,11.70
2022-11-03T09:29:15.925Z,11.70
2022-11-03T09:32:02.662Z,11.80
2022-11-03T09:34:30.641Z,11.80
2022-11-03T09:37:00.005Z,11.80
2022-11-03T09:39:27.969Z,11.90
2022-11-03T09:41:59.169Z,11.90
2022-11-03T09:44:27.475Z,12.00
2022-11-03T09:46:58.349Z,12.00
2022-11-03T09:49:27.488Z,12.00
2022-11-03T09:51:56.727Z,12.10
2022-11-03T09:54:27.764Z,12.10
2022-11-03T09:56:58.796Z,12.10
2022-11-03T09:59:26.825Z,12.20
2022-11-03T10:01:54.983Z,12.20
2022-11-03T10:04:27.147Z,12.30
2022-11-03T10:06:55.505Z,12.30
2022-11-03T10:09:24.089Z,12.40
2022-11-03T10:11:55.115Z,12.40
2022-11-03T10:14:23.687Z,12.50
2022-11-03T10:16:53.575Z,12.50
2022-11-03T10:19:21.860Z,12.50
2022-11-03T10:21:49.795Z,12.60
2022-11-03T10:24:17.692Z,12.60
2022-11-03T10:26:46.551Z,12.70
2022-11-03T10:29:20.890Z,12.70
2022-11-03T10:31:51.384Z,12.80
2022-11-03T10:34:26.509Z,13.50
2022-11-03T10:37:11.088Z,12.90
2022-11-03T10:39:39.066Z,12.90
2022-11-03T10:42:07.008Z,13.00
2022-11-03T10:44:36.289Z,13.00
2022-11-03T10:47:05.216Z,13.00
2022-11-03T10:49:36.563Z,13.10
2022-11-03T10:52:15.276Z,13.10
2022-11-03T10:54:43.203Z,13.20
2022-11-03T10:57:11.297Z,13.30
2022-11-03T10:59:41.094Z,13.30
2022-11-03T11:02:16.726Z,13.40
2022-11-03T11:04:45.373Z,13.40
2022-11-03T11:07:19.850Z,13.50
2022-11-03T11:09:48.171Z,13.50
2022-11-03T11:12:17.374Z,13.60
2022-11-03T11:14:57.365Z,13.60
2022-11-03T11:17:40.503Z,13.70
2022-11-03T11:20:30.637Z,13.70
2022-11-03T11:23:26.577Z,13.70
2022-11-03T11:26:07.364Z,13.80
2022-11-03T11:28:35.827Z,13.80
2022-11-03T11:31:40.053Z,14.10
2022-11-03T11:34:26.880Z,13.80
2022-11-03T11:37:10.892Z,13.80
2022-11-03T11:39:46.459Z,13.80
2022-11-03T11:42:17.347Z,13.80
2022-11-03T11:44:53.510Z,13.90
2022-11-03T11:47:43.593Z,13.90
2022-11-03T11:50:17.727Z,13.90
2022-11-03T11:52:46.466Z,13.90
2022-11-03T11:55:19.946Z,13.90
2022-11-03T11:57:48.582Z,13.90
2022-11-03T12:00:20.262Z,13.90
2022-11-03T12:02:48.537Z,13.90
2022-11-03T12:05:23.757Z,13.90
2022-11-03T12:07:52.733Z,13.90
2022-11-03T12:10:23.748Z,13.90
2022-11-03T12:12:51.645Z,13.90
2022-11-03T12:15:39.242Z,13.90
2022-11-03T12:18:22.017Z,13.90
2022-11-03T12:20:49.957Z,13.90
2022-11-03T12:23:32.714Z,14.00
2022-11-03T12:26:02.149Z,14.00
2022-11-03T12:28:33.825Z,14.00
2022-11-03T12:31:10.811Z,14.10
2022-11-03T12:33:39.185Z,14.10
2022-11-03T12:36:07.516Z,14.10
2022-11-03T12:38:35.675Z,14.10
2022-11-03T12:41:18.991Z,14.10
2022-11-03T12:43:47.113Z,14.10
2022-11-03T12:46:15.660Z,14.10
2022-11-03T12:48:44.366Z,14.10
2022-11-03T12:51:13.220Z,14.00
2022-11-03T12:53:41.188Z,14.00
2022-11-03T12:56:10.882Z,14.00
2022-11-03T12:58:39.339Z,13.90
2022-11-03T13:01:07.493Z,13.90
2022-11-03T13:03:36.297Z,13.90
2022-11-03T13:06:04.914Z,13.90
2022-11-03T13:08:32.998Z,13.80
2022-11-03T13:11:00.911Z,13.80
2022-11-03T13:13:30.591Z,13.80
2022-11-03T13:15:58.495Z,13.80
2022-11-03T13:18:26.399Z,13.80
2022-11-03T13:20:54.434Z,13.80
2022-11-03T13:23:24.279Z,13.80
2022-11-03T13:25:52.199Z,13.80
2022-11-03T13:28:20.214Z,13.80
2022-11-03T13:30:49.460Z,14.10
2022-11-03T13:33:17.407Z,13.70
2022-11-03T13:35:45.388Z,13.70
2022-11-03T13:38:13.953Z,13.70
2022-11-03T13:40:57.246Z,13.70
2022-11-03T13:43:25.972Z,13.70
2022-11-03T13:45:58.541Z,13.70
2022-11-03T13:51:17.591Z,13.60
2022-11-03T14:04:42.501Z,13.60
2022-11-03T14:07:11.419Z,13.60
2022-11-03T14:09:39.346Z,13.60
2022-11-03T14:12:25.786Z,13.60
2022-11-03T14:14:53.812Z,13.60
2022-11-03T14:17:24.552Z,13.60
2022-11-03T14:19:56.528Z,13.80
2022-11-03T14:22:27.194Z,13.60
2022-11-03T14:24:55.330Z,13.60
2022-11-03T14:27:26.669Z,13.60
2022-11-03T14:30:01.382Z,13.60
2022-11-03T14:32:33.670Z,13.60
2022-11-03T14:35:01.709Z,13.60
2022-11-03T14:37:30.157Z,13.60
2022-11-03T14:39:58.522Z,13.60
2022-11-03T14:42:25.869Z,13.60
2022-11-03T14:44:54.065Z,13.60
2022-11-03T14:47:22.320Z,13.50
2022-11-03T14:49:51.612Z,13.50
2022-11-03T14:52:19.626Z,13.50
2022-11-03T14:54:48.019Z,13.50
2022-11-03T14:57:15.962Z,13.40
2022-11-03T14:59:46.753Z,13.40
2022-11-03T15:02:17.284Z,13.40
2022-11-03T15:04:45.383Z,13.40
2022-11-03T15:07:14.695Z,13.40
2022-11-03T15:09:42.736Z,13.40
2022-11-03T15:12:10.747Z,13.30
2022-11-03T15:14:38.717Z,13.30
2022-11-03T15:17:06.647Z,13.30
2022-11-03T15:19:34.729Z,13.30
2022-11-03T15:22:02.635Z,13.30
2022-11-03T15:27:19.881Z,13.20
2022-11-03T15:29:47.803Z,13.20
2022-11-03T15:32:15.780Z,13.10
2022-11-03T15:34:43.731Z,13.10
2022-11-03T15:37:11.675Z,13.10
2022-11-03T15:39:40.952Z,13.10
2022-11-03T15:42:08.905Z,13.10
2022-11-03T15:44:36.842Z,13.10
2022-11-03T15:47:04.886Z,13.00
2022-11-03T15:49:32.902Z,13.00
2022-11-03T15:52:00.829Z,13.00
2022-11-03T15:54:28.828Z,13.10
2022-11-03T15:56:58.217Z,13.00
2022-11-03T15:59:26.160Z,13.00
2022-11-03T16:02:03.471Z,13.00
2022-11-03T16:04:42.101Z,13.00
2022-11-03T16:07:10.020Z,12.90
2022-11-03T16:09:37.982Z,13.00
2022-11-03T16:12:07.666Z,12.90
2022-11-03T16:14:35.567Z,12.90
2022-11-03T16:17:05.108Z,12.90
2022-11-03T16:19:33.149Z,12.90
2022-11-03T16:22:01.065Z,12.90
2022-11-03T16:24:34.875Z,12.90
2022-11-03T16:27:03.629Z,12.80
2022-11-03T16:29:32.944Z,12.80
2022-11-03T16:32:00.893Z,12.80
2022-11-03T16:34:28.912Z,12.80
2022-11-03T16:36:57.195Z,12.80
2022-11-03T16:39:25.199Z,12.80
2022-11-03T16:41:54.808Z,12.80
2022-11-03T16:44:23.062Z,12.80
2022-11-03T16:46:52.394Z,12.80
2022-11-03T16:49:20.383Z,12.80
2022-11-03T16:51:48.389Z,12.80
2022-11-03T16:54:16.302Z,12.80
2022-11-03T16:56:44.713Z,12.80
2022-11-03T16:59:12.719Z,12.80
2022-11-03T17:01:40.760Z,12.80
2022-11-03T17:04:10.578Z,12.80
2022-11-03T17:06:50.531Z,12.80
2022-11-03T17:09:18.456Z,12.80
2022-11-03T17:11:46.483Z,12.80
2022-11-03T17:14:14.580Z,12.80
2022-11-03T17:16:45.595Z,12.80
2022-11-03T17:19:15.507Z,12.80
2022-11-03T17:21:43.497Z,12.80
2022-11-03T17:24:13.319Z,12.80
2022-11-03T17:26:46.254Z,12.80
2022-11-03T17:29:16.346Z,12.80
2022-11-03T17:31:44.322Z,12.80
2022-11-03T17:34:13.134Z,12.80
2022-11-03T17:36:42.512Z,12.80
2022-11-03T17:39:13.741Z,12.80
2022-11-03T17:41:41.730Z,12.70
2022-11-03T17:44:10.541Z,12.70
2022-11-03T17:46:38.423Z,12.70
2022-11-03T17:49:06.392Z,12.70
2022-11-03T17:51:35.681Z,12.70
2022-11-03T17:54:08.043Z,12.70
2022-11-03T17:56:36.203Z,12.70
2022-11-03T17:59:04.649Z,12.60
2022-11-03T18:01:32.673Z,12.60
2022-11-03T18:04:02.576Z,12.60
2022-11-03T18:06:30.731Z,12.60
2022-11-03T18:08:59.382Z,12.60
2022-11-03T18:11:47.682Z,12.60
2022-11-03T18:14:16.201Z,12.60
2022-11-03T18:16:44.213Z,12.60
2022-11-03T18:19:12.876Z,12.60
2022-11-03T18:21:41.148Z,12.60
2022-11-03T18:24:11.954Z,12.60
2022-11-03T18:26:41.342Z,12.60
2022-11-03T18:29:09.486Z,12.60
2022-11-03T18:31:38.532Z,12.60
2022-11-03T18:34:07.749Z,12.60
2022-11-03T18:36:35.679Z,12.60
2022-11-03T18:39:03.783Z,13.30
2022-11-03T18:41:43.995Z,12.60
2022-11-03T18:44:15.942Z,12.60
2022-11-03T18:46:43.944Z,12.60
2022-11-03T18:49:12.119Z,12.60
2022-11-03T18:51:40.585Z,12.60
2022-11-03T18:54:13.454Z,12.60
2022-11-03T18:56:41.623Z,12.60
2022-11-03T18:59:16.310Z,12.60
2022-11-03T19:01:46.225Z,12.60
2022-11-03T19:04:15.147Z,12.60
2022-11-03T19:06:44.103Z,12.60
2022-11-03T19:09:14.390Z,12.60
2022-11-03T19:11:42.966Z,12.60
2022-11-03T19:14:13.582Z,12.50
2022-11-03T19:16:55.478Z,12.50
2022-11-03T19:19:30.972Z,12.50
2022-11-03T19:21:59.114Z,12.50
2022-11-03T19:24:27.192Z,12.50
2022-11-03T19:26:57.002Z,12.50
2022-11-03T19:29:26.044Z,12.50
2022-11-03T19:31:54.183Z,12.50
2022-11-03T19:34:23.467Z,12.50
2022-11-03T19:36:53.153Z,12.50
2022-11-03T19:39:24.205Z,12.50
2022-11-03T19:42:09.834Z,12.40
2022-11-03T19:44:37.918Z,12.40
2022-11-03T19:47:06.004Z,12.50
2022-11-03T19:49:34.761Z,12.40
2022-11-03T19:52:04.184Z,12.40
2022-11-03T19:54:32.111Z,12.40
2022-11-03T19:57:00.102Z,12.40
2022-11-03T19:59:28.153Z,12.40
2022-11-03T20:01:56.304Z,12.40
2022-11-03T20:04:24.599Z,12.30
2022-11-03T20:06:52.988Z,12.30
2022-11-03T20:09:23.566Z,12.30
2022-11-03T20:11:53.193Z,12.30
2022-11-03T20:14:23.719Z,12.30
2022-11-03T20:16:51.727Z,12.30
2022-11-03T20:19:20.473Z,12.30
2022-11-03T20:21:48.717Z,12.30
2022-11-03T20:24:17.365Z,12.30
2022-11-03T20:26:46.762Z,12.30
2022-11-03T20:29:15.743Z,12.30
2022-11-03T20:31:44.633Z,12.30
2022-11-03T20:34:13.849Z,12.30
2022-11-03T20:36:44.916Z,12.30
2022-11-03T20:39:14.434Z,12.30
2022-11-03T20:41:42.757Z,12.30
2022-11-03T20:44:12.810Z,12.60
2022-11-03T20:46:40.845Z,12.30
2022-11-03T20:49:08.864Z,12.30
2022-11-03T20:51:37.800Z,12.30
2022-11-03T20:54:11.979Z,12.30
2022-11-03T20:56:40.002Z,12.30
2022-11-03T20:59:08.087Z,12.30
2022-11-03T21:01:37.535Z,12.30
2022-11-03T21:04:09.555Z,12.30
2022-11-03T21:06:37.906Z,12.30
2022-11-03T21:09:11.441Z,12.30
2022-11-03T21:11:40.530Z,12.30
2022-11-03T21:14:13.727Z,12.30
2022-11-03T21:17:00.479Z,12.30
2022-11-03T21:19:47.651Z,12.30
2022-11-03T21:22:51.454Z,12.30
2022-11-03T21:25:05.270Z,12.30
2022-11-03T21:27:34.676Z,12.30
2022-11-03T21:30:05.238Z,12.30
2022-11-03T21:32:34.751Z,12.30
2022-11-03T21:35:02.922Z,12.30
2022-11-03T21:37:31.002Z,12.30
2022-11-03T21:39:59.086Z,12.30
2022-11-03T21:42:44.593Z,12.30
2022-11-03T21:45:13.399Z,12.30
2022-11-03T21:48:06.483Z,12.30
2022-11-03T21:50:37.212Z,12.30
2022-11-03T21:53:05.346Z,12.30
2022-11-03T21:55:33.410Z,12.30
2022-11-03T21:58:02.238Z,12.30
2022-11-03T22:00:30.442Z,12.30
2022-11-03T22:02:59.793Z,12.30
2022-11-03T22:05:50.616Z,12.30
2022-11-03T22:08:18.506Z,12.30
2022-11-03T22:10:46.493Z,12.30
2022-11-03T22:13:14.371Z,12.20
2022-11-03T22:16:00.004Z,12.20
2022-11-03T22:18:29.565Z,12.20
2022-11-03T22:21:15.950Z,12.20
2022-11-03T22:24:10.142Z,12.20
2022-11-03T22:26:55.599Z,12.20
2022-11-03T22:29:41.095Z,12.20
2022-11-03T22:32:13.949Z,12.20
2022-11-03T22:35:00.940Z,12.20
2022-11-03T22:40:13.462Z,12.10
2022-11-03T22:42:58.839Z,12.10
2022-11-03T22:45:44.298Z,12.10
2022-11-03T22:48:12.711Z,12.10
2022-11-03T22:50:41.993Z,12.10
2022-11-03T22:53:27.285Z,12.10
2022-11-03T22:55:55.195Z,12.10
2022-11-03T22:58:27.844Z,12.10
2022-11-03T23:00:58.359Z,12.10
2022-11-03T23:03:26.222Z,12.10
2022-11-03T23:05:55.470Z,12.10
2022-11-03T23:08:23.511Z,12.10
2022-11-03T23:10:51.638Z,12.00
2022-11-03T23:13:19.725Z,12.00
2022-11-03T23:15:50.287Z,12.00
2022-11-03T23:18:35.799Z,12.00
2022-11-03T23:21:08.131Z,12.00
2022-11-03T23:23:54.187Z,12.00
2022-11-03T23:26:22.411Z,12.00
2022-11-03T23:28:50.330Z,12.00
2022-11-03T23:31:18.256Z,11.90
2022-11-03T23:33:46.319Z,12.00
2022-11-03T23:36:15.997Z,12.00
2022-11-03T23:38:43.967Z,12.00
2022-11-03T23:41:16.359Z,12.00
2022-11-03T23:43:44.723Z,12.00
2022-11-03T23:46:30.645Z,11.90
2022-11-03T23:48:59.042Z,12.00
2022-11-03T23:51:29.019Z,11.90
2022-11-03T23:53:57.775Z,11.90
2022-11-03T23:56:44.942Z,11.90
2022-11-03T23:59:13.387Z,11.90
